Hovedside
METAR-TAF:

METAR-TAF

Lufthavner :

Arvidsjaur lufthavn

Arvidsjaur, Sverige

breddegrad: 65-35-25N, lengdegrad: 019-16-55E, høyde over havet: 379 m

Gjeldene værobservasjon

Denne rapporten ble laget for 5 minutter siden, klokken 04:50 UTC
Vind 1 kt fra skiftende retning
Temperatur -1°C
Luftfuktighet 93%
Trykk 1011 hPa
Sikt 10 km eller mer
ingen skyer under 1500 m og ingen bygeskyer

METAR: ESNX 160450Z VRB01KT CAVOK M01/M02 Q1011

Tid: 06:55 (04:55 UTC)

Varsel

Denne rapporten ble laget for 1 time og 25 minutter siden, klokken 03:30 UTC
Varsel gyldig fra 16. klokken 04 UTC til 16. klokken 12 UTC
Vind 5 kt fra Vest-nordvest
Sikt 10 km eller mer
ingen skyer under 1500 m og ingen bygeskyer

TAF: ESNX 160330Z 1604/1612 29005KT CAVOK

Værobservasjoner og værvarsel for over 4000 flyplasser (METAR- og TAF-rapporter).

Tilgjengelige stasjoner er representert av de røde og gule prikkene på kartet.

Hold musepekeren over prikken for å se navnet på stasjonen.

Klikk så for å se værobservasjoner og -varsler.

For å forandre kartet kan du klikke på den grønne knappen med svart kryss for å zoome inn, på den grønne knappen med strek for å zoome ut, eller på de grønne pilene for å se tilstøtende kart.


METAR-TAF: